CFG8TF EDDN-EDDN

Flight info

Callsign CFG8TF
Flight time 0h 29m
Altitude 4000
Route DN107
Aircraft A321/M-SDE3FGHIRWY/LB1

Departure

Time 2026-05-05 20:03
Airport Nuremberg Airport (EDDN)

Arrival

Time 2026-05-05 20:32
Airport Nuremberg Airport (EDDN)
Time Latitude Longitude Altitude Speed Heading
2026-05-05 19:35 49.49632 11.07864 1027 ft 0 kts 188°
2026-05-05 19:57 49.49631 11.07864 1028 ft 0 kts 188°
2026-05-05 19:57 49.49618 11.07861 1028 ft 5 kts 189°
2026-05-05 19:58 49.49583 11.07874 1024 ft 6 kts 133°
2026-05-05 19:58 49.49570 11.07931 1027 ft 6 kts 102°
2026-05-05 19:58 49.49562 11.08005 1028 ft 8 kts 99°
2026-05-05 19:58 49.49550 11.08126 1026 ft 12 kts 99°
2026-05-05 19:59 49.49537 11.08256 1029 ft 12 kts 98°
2026-05-05 19:59 49.49564 11.08346 1031 ft 8 kts 19°
2026-05-05 19:59 49.49608 11.08380 1033 ft 7 kts 52°
2026-05-05 19:59 49.49609 11.08493 1035 ft 15 kts 98°
2026-05-05 20:00 49.49587 11.08714 1037 ft 26 kts 98°
2026-05-05 20:00 49.49563 11.08948 1039 ft 14 kts 99°
2026-05-05 20:00 49.49548 11.09087 1041 ft 12 kts 98°
2026-05-05 20:00 49.49539 11.09210 1043 ft 11 kts 97°
2026-05-05 20:01 49.49530 11.09312 1045 ft 8 kts 93°
2026-05-05 20:01 49.49558 11.09416 1048 ft 14 kts 52°
2026-05-05 20:01 49.49617 11.09532 1051 ft 8 kts 51°
2026-05-05 20:01 49.49653 11.09572 1052 ft 5 kts 13°
2026-05-05 20:02 49.49681 11.09560 1053 ft 4 kts 327°
2026-05-05 20:02 49.49699 11.09518 1052 ft 8 kts 289°
2026-05-05 20:02 49.49735 11.09162 1046 ft 75 kts 278°
2026-05-05 20:02 49.49855 11.07957 1032 ft 148 kts 278°
2026-05-05 20:03 49.50009 11.06253 1489 ft 168 kts 276°
2026-05-05 20:03 49.50178 11.04462 2382 ft 170 kts 279°
2026-05-05 20:03 49.50392 11.02564 2874 ft 192 kts 279°
2026-05-05 20:03 49.50650 11.00402 3409 ft 218 kts 279°
2026-05-05 20:04 49.50948 10.98010 4088 ft 242 kts 279°
2026-05-05 20:04 49.51570 10.95541 5058 ft 257 kts 302°
2026-05-05 20:04 49.52950 10.93711 6129 ft 273 kts 328°
2026-05-05 20:04 49.54812 10.92910 6595 ft 285 kts 353°
2026-05-05 20:05 49.56808 10.93266 6777 ft 290 kts
2026-05-05 20:05 49.58776 10.93941 6830 ft 290 kts
2026-05-05 20:05 49.60721 10.94778 6833 ft 293 kts 21°
2026-05-05 20:05 49.62362 10.96658 6835 ft 298 kts 49°
2026-05-05 20:06 49.63327 10.99473 6838 ft 299 kts 76°
2026-05-05 20:06 49.63415 11.02642 6837 ft 296 kts 103°
2026-05-05 20:06 49.62925 11.05710 6839 ft 295 kts 108°
2026-05-05 20:06 49.62559 11.08828 6835 ft 296 kts 100°
2026-05-05 20:07 49.62294 11.11983 6836 ft 297 kts 99°
2026-05-05 20:07 49.62041 11.15123 6596 ft 294 kts 99°
2026-05-05 20:07 49.61786 11.18250 6160 ft 293 kts 100°
2026-05-05 20:07 49.61421 11.21320 5720 ft 290 kts 103°
2026-05-05 20:08 49.61054 11.24311 5219 ft 286 kts 102°
2026-05-05 20:08 49.60698 11.27316 4637 ft 286 kts 102°
2026-05-05 20:08 49.60343 11.30320 4337 ft 284 kts 103°
2026-05-05 20:08 49.59987 11.33312 4081 ft 284 kts 102°
2026-05-05 20:09 49.59618 11.36296 3974 ft 282 kts 102°
2026-05-05 20:09 49.59246 11.39262 3977 ft 281 kts 103°
2026-05-05 20:09 49.58889 11.42127 3985 ft 264 kts 102°
2026-05-05 20:09 49.58363 11.44730 3988 ft 250 kts 123°
2026-05-05 20:10 49.57177 11.46545 3988 ft 231 kts 155°
2026-05-05 20:10 49.55709 11.47262 3991 ft 217 kts 173°
2026-05-05 20:10 49.54246 11.47318 3994 ft 208 kts 192°
2026-05-05 20:10 49.52821 11.46986 3993 ft 206 kts 194°
2026-05-05 20:11 49.51411 11.46611 3991 ft 205 kts 197°
2026-05-05 20:11 49.50203 11.45617 3986 ft 197 kts 230°
2026-05-05 20:11 49.49503 11.43831 3994 ft 195 kts 244°
2026-05-05 20:11 49.48887 11.41975 4000 ft 194 kts 244°
2026-05-05 20:12 49.48400 11.40048 3984 ft 192 kts 253°
2026-05-05 20:12 49.48022 11.38087 3684 ft 191 kts 254°
2026-05-05 20:12 49.47660 11.36140 3703 ft 193 kts 255°
2026-05-05 20:12 49.47323 11.34135 3703 ft 194 kts 262°
2026-05-05 20:13 49.47435 11.32065 3711 ft 196 kts 277°
2026-05-05 20:13 49.47653 11.29991 3629 ft 196 kts 278°
2026-05-05 20:13 49.47864 11.27930 3427 ft 194 kts 277°
2026-05-05 20:13 49.48062 11.25972 3196 ft 176 kts 277°
2026-05-05 20:14 49.48243 11.24174 2993 ft 166 kts 277°
2026-05-05 20:14 49.48407 11.22561 2730 ft 140 kts 277°
2026-05-05 20:14 49.48507 11.21616 2530 ft 131 kts 278°
2026-05-05 20:14 49.48641 11.20279 2340 ft 124 kts 277°
2026-05-05 20:15 49.48748 11.18981 2223 ft 121 kts 277°
2026-05-05 20:15 49.48875 11.17689 2061 ft 124 kts 279°
2026-05-05 20:15 49.49049 11.15940 1792 ft 124 kts 276°
2026-05-05 20:15 49.49172 11.14676 1704 ft 120 kts 281°
2026-05-05 20:16 49.49278 11.13794 1624 ft 126 kts 277°
2026-05-05 20:16 49.49398 11.12500 1467 ft 125 kts 277°
2026-05-05 20:16 49.49525 11.11218 1330 ft 120 kts 280°
2026-05-05 20:16 49.49658 11.09925 1146 ft 125 kts 278°
2026-05-05 20:17 49.49783 11.08632 1041 ft 116 kts 277°
2026-05-05 20:17 49.49916 11.07266 1030 ft 166 kts 278°
2026-05-05 20:17 49.50089 11.05477 2163 ft 166 kts 278°
2026-05-05 20:17 49.50287 11.03705 2977 ft 176 kts 279°
2026-05-05 20:18 49.50523 11.01783 3566 ft 187 kts 279°
2026-05-05 20:18 49.50750 10.99797 4312 ft 189 kts 277°
2026-05-05 20:18 49.50978 10.97792 5084 ft 190 kts 277°
2026-05-05 20:18 49.51225 10.95812 5826 ft 193 kts 281°
2026-05-05 20:19 49.51971 10.94055 6503 ft 206 kts 315°
2026-05-05 20:19 49.53335 10.93171 6771 ft 223 kts 348°
2026-05-05 20:19 49.54900 10.93399 6828 ft 228 kts
2026-05-05 20:19 49.56437 10.94040 6832 ft 231 kts 22°
2026-05-05 20:20 49.57661 10.95656 6834 ft 237 kts 57°
2026-05-05 20:20 49.58152 10.98041 6838 ft 235 kts 90°
2026-05-05 20:20 49.58089 11.00555 6843 ft 235 kts 98°
2026-05-05 20:20 49.57926 11.03057 6835 ft 235 kts 99°
2026-05-05 20:21 49.57732 11.05522 6840 ft 234 kts 101°
2026-05-05 20:21 49.57502 11.08040 6838 ft 234 kts 101°
2026-05-05 20:21 49.57275 11.10485 6835 ft 234 kts 101°
2026-05-05 20:21 49.57038 11.12991 6840 ft 233 kts 101°
2026-05-05 20:22 49.56806 11.15434 6839 ft 233 kts 101°
2026-05-05 20:22 49.56572 11.17907 6828 ft 233 kts 101°
2026-05-05 20:22 49.56340 11.20375 6617 ft 232 kts 101°
2026-05-05 20:22 49.56103 11.22844 6475 ft 235 kts 101°
2026-05-05 20:23 49.55840 11.25358 6348 ft 241 kts 102°
2026-05-05 20:23 49.55562 11.27945 6216 ft 246 kts 102°
2026-05-05 20:23 49.55289 11.30561 6082 ft 249 kts 102°
2026-05-05 20:23 49.55032 11.33168 5941 ft 243 kts 101°
2026-05-05 20:24 49.54788 11.35701 5819 ft 236 kts 101°
2026-05-05 20:24 49.54549 11.38174 5628 ft 232 kts 101°
2026-05-05 20:24 49.54310 11.40620 5386 ft 229 kts 101°
2026-05-05 20:24 49.54071 11.43051 5141 ft 229 kts 101°
2026-05-05 20:25 49.53833 11.45472 4913 ft 228 kts 101°
2026-05-05 20:25 49.53587 11.47871 4568 ft 229 kts 103°
2026-05-05 20:25 49.52962 11.50076 4096 ft 225 kts 135°
2026-05-05 20:25 49.51710 11.51259 3995 ft 212 kts 172°
2026-05-05 20:26 49.50285 11.51086 3997 ft 202 kts 208°
2026-05-05 20:26 49.49115 11.49991 4000 ft 199 kts 216°
2026-05-05 20:26 49.48015 11.48735 3995 ft 196 kts 233°
2026-05-05 20:26 49.47436 11.46868 3997 ft 195 kts 252°
2026-05-05 20:27 49.47040 11.44862 3999 ft 195 kts 254°
2026-05-05 20:27 49.46671 11.42862 3998 ft 194 kts 254°
2026-05-05 20:27 49.46552 11.40816 4000 ft 194 kts 276°
2026-05-05 20:27 49.46763 11.38759 3998 ft 195 kts 277°
2026-05-05 20:28 49.46978 11.36699 4005 ft 195 kts 277°
2026-05-05 20:28 49.47189 11.34636 4021 ft 195 kts 277°
2026-05-05 20:28 49.47395 11.32603 3958 ft 195 kts 277°
2026-05-05 20:28 49.47602 11.30546 3758 ft 195 kts 277°
2026-05-05 20:29 49.47805 11.28531 3511 ft 183 kts 277°
2026-05-05 20:29 49.47992 11.26679 3287 ft 170 kts 277°
2026-05-05 20:29 49.48169 11.24910 3069 ft 165 kts 277°
2026-05-05 20:29 49.48343 11.23175 2866 ft 163 kts 277°
2026-05-05 20:30 49.48515 11.21451 2642 ft 162 kts 277°
2026-05-05 20:30 49.48671 11.19889 2428 ft 136 kts 277°
2026-05-05 20:30 49.48808 11.18515 2253 ft 126 kts 277°
2026-05-05 20:30 49.48938 11.17209 2085 ft 122 kts 277°
2026-05-05 20:31 49.49066 11.15923 1914 ft 121 kts 278°
2026-05-05 20:31 49.49193 11.14644 1748 ft 121 kts 278°
2026-05-05 20:31 49.49323 11.13348 1581 ft 123 kts 277°
2026-05-05 20:31 49.49454 11.12032 1440 ft 126 kts 276°
2026-05-05 20:32 49.49572 11.10711 1226 ft 123 kts 277°
2026-05-05 20:32 49.49709 11.09447 1071 ft 118 kts 278°
2026-05-05 20:32 49.49825 11.08312 1034 ft 92 kts 278°
2026-05-05 20:32 49.49891 11.07637 1025 ft 41 kts 278°
2026-05-05 20:33 49.49930 11.07237 1024 ft 28 kts 278°
2026-05-05 20:33 49.49930 11.07032 1022 ft 15 kts 237°
2026-05-05 20:33 49.49851 11.07023 1022 ft 13 kts 159°
2026-05-05 20:33 49.49766 11.07078 1021 ft 13 kts 154°
2026-05-05 20:34 49.49732 11.07188 1022 ft 12 kts 96°
2026-05-05 20:34 49.49725 11.07313 1023 ft 12 kts 96°
2026-05-05 20:34 49.49713 11.07439 1022 ft 12 kts 99°
2026-05-05 20:34 49.49701 11.07561 1021 ft 11 kts 98°
2026-05-05 20:35 49.49689 11.07679 1024 ft 11 kts 98°
2026-05-05 20:35 49.49659 11.07764 1027 ft 9 kts 155°
2026-05-05 20:35 49.49603 11.07748 1027 ft 9 kts 221°
2026-05-05 20:35 49.49572 11.07673 1025 ft 9 kts 205°
2026-05-05 20:36 49.49535 11.07662 1026 ft 0 kts 189°
2026-05-05 20:36 49.49531 11.07661 1026 ft 0 kts 189°